sensor_id;sensor_type;location;lat;lon;timestamp;P1;durP1;ratioP1;P2;durP2;ratioP2
69750;SDS011;57335;52.288;6.056;2024-02-16T00:01:41;6.38;;;2.15;;
69750;SDS011;57335;52.288;6.056;2024-02-16T00:04:08;7.93;;;2.67;;
69750;SDS011;57335;52.288;6.056;2024-02-16T00:06:35;6.40;;;2.50;;
69750;SDS011;57335;52.288;6.056;2024-02-16T00:09:02;6.43;;;2.30;;
69750;SDS011;57335;52.288;6.056;2024-02-16T00:11:29;7.00;;;2.33;;
69750;SDS011;57335;52.288;6.056;2024-02-16T00:13:56;8.32;;;2.53;;
69750;SDS011;57335;52.288;6.056;2024-02-16T00:16:22;8.73;;;2.50;;
69750;SDS011;57335;52.288;6.056;2024-02-16T00:18:49;7.93;;;2.50;;
69750;SDS011;57335;52.288;6.056;2024-02-16T00:21:16;6.88;;;2.30;;
69750;SDS011;57335;52.288;6.056;2024-02-16T00:23:43;8.40;;;2.60;;
69750;SDS011;57335;52.288;6.056;2024-02-16T00:26:13;6.97;;;2.65;;
69750;SDS011;57335;52.288;6.056;2024-02-16T00:28:39;6.55;;;2.42;;
69750;SDS011;57335;52.288;6.056;2024-02-16T00:31:08;9.25;;;2.55;;
69750;SDS011;57335;52.288;6.056;2024-02-16T00:33:35;6.28;;;2.17;;
69750;SDS011;57335;52.288;6.056;2024-02-16T00:36:02;10.15;;;2.90;;
69750;SDS011;57335;52.288;6.056;2024-02-16T00:38:29;7.88;;;2.53;;
69750;SDS011;57335;52.288;6.056;2024-02-16T00:40:55;6.80;;;2.33;;
69750;SDS011;57335;52.288;6.056;2024-02-16T00:43:22;7.68;;;2.20;;
69750;SDS011;57335;52.288;6.056;2024-02-16T00:45:49;7.50;;;2.60;;
69750;SDS011;57335;52.288;6.056;2024-02-16T00:48:16;5.93;;;2.35;;
69750;SDS011;57335;52.288;6.056;2024-02-16T00:50:42;8.60;;;2.60;;
69750;SDS011;57335;52.288;6.056;2024-02-16T00:53:10;8.85;;;2.50;;
69750;SDS011;57335;52.288;6.056;2024-02-16T00:55:36;9.30;;;2.67;;
69750;SDS011;57335;52.288;6.056;2024-02-16T00:58:04;8.25;;;2.70;;
69750;SDS011;57335;52.288;6.056;2024-02-16T01:00:31;7.28;;;2.58;;
69750;SDS011;57335;52.288;6.056;2024-02-16T01:02:58;6.65;;;2.35;;
69750;SDS011;57335;52.288;6.056;2024-02-16T01:05:24;7.38;;;2.60;;
69750;SDS011;57335;52.288;6.056;2024-02-16T01:07:51;10.77;;;2.85;;
69750;SDS011;57335;52.288;6.056;2024-02-16T01:10:18;8.35;;;2.63;;
69750;SDS011;57335;52.288;6.056;2024-02-16T01:12:45;7.80;;;2.60;;
69750;SDS011;57335;52.288;6.056;2024-02-16T01:15:12;7.40;;;2.58;;
69750;SDS011;57335;52.288;6.056;2024-02-16T01:17:39;7.75;;;2.28;;
69750;SDS011;57335;52.288;6.056;2024-02-16T01:20:06;7.57;;;2.97;;
69750;SDS011;57335;52.288;6.056;2024-02-16T01:22:38;8.13;;;2.45;;
69750;SDS011;57335;52.288;6.056;2024-02-16T01:25:06;8.80;;;2.50;;
69750;SDS011;57335;52.288;6.056;2024-02-16T01:27:35;8.77;;;3.10;;
69750;SDS011;57335;52.288;6.056;2024-02-16T01:30:02;7.97;;;2.75;;
69750;SDS011;57335;52.288;6.056;2024-02-16T01:32:30;9.40;;;2.78;;
69750;SDS011;57335;52.288;6.056;2024-02-16T01:34:57;9.52;;;2.55;;
69750;SDS011;57335;52.288;6.056;2024-02-16T01:37:24;10.02;;;2.83;;
69750;SDS011;57335;52.288;6.056;2024-02-16T01:39:51;6.68;;;2.40;;
69750;SDS011;57335;52.288;6.056;2024-02-16T01:42:19;8.38;;;2.80;;
69750;SDS011;57335;52.288;6.056;2024-02-16T01:44:45;9.07;;;2.20;;
69750;SDS011;57335;52.288;6.056;2024-02-16T01:47:12;6.93;;;2.40;;
69750;SDS011;57335;52.288;6.056;2024-02-16T01:49:39;9.05;;;2.67;;
69750;SDS011;57335;52.288;6.056;2024-02-16T01:52:06;8.23;;;2.60;;
69750;SDS011;57335;52.288;6.056;2024-02-16T01:54:33;8.55;;;2.70;;
69750;SDS011;57335;52.288;6.056;2024-02-16T01:57:00;8.30;;;3.25;;
69750;SDS011;57335;52.288;6.056;2024-02-16T01:59:27;6.97;;;2.55;;
69750;SDS011;57335;52.288;6.056;2024-02-16T02:01:54;8.13;;;2.42;;
69750;SDS011;57335;52.288;6.056;2024-02-16T02:04:21;7.68;;;2.53;;
69750;SDS011;57335;52.288;6.056;2024-02-16T02:06:47;8.55;;;2.65;;
69750;SDS011;57335;52.288;6.056;2024-02-16T02:09:14;8.18;;;2.95;;
69750;SDS011;57335;52.288;6.056;2024-02-16T02:11:41;6.35;;;2.47;;
69750;SDS011;57335;52.288;6.056;2024-02-16T02:14:07;10.10;;;2.60;;
69750;SDS011;57335;52.288;6.056;2024-02-16T02:16:34;7.05;;;2.60;;
69750;SDS011;57335;52.288;6.056;2024-02-16T02:19:16;8.13;;;2.70;;
69750;SDS011;57335;52.288;6.056;2024-02-16T02:21:43;6.30;;;2.65;;
69750;SDS011;57335;52.288;6.056;2024-02-16T02:24:10;8.85;;;3.13;;
69750;SDS011;57335;52.288;6.056;2024-02-16T02:26:37;7.45;;;3.13;;
69750;SDS011;57335;52.288;6.056;2024-02-16T02:29:04;8.70;;;2.60;;
69750;SDS011;57335;52.288;6.056;2024-02-16T02:31:31;8.30;;;2.60;;
69750;SDS011;57335;52.288;6.056;2024-02-16T02:33:57;8.98;;;3.03;;
69750;SDS011;57335;52.288;6.056;2024-02-16T02:36:24;8.07;;;2.63;;
69750;SDS011;57335;52.288;6.056;2024-02-16T02:38:51;9.90;;;2.90;;
69750;SDS011;57335;52.288;6.056;2024-02-16T02:41:18;10.20;;;2.80;;
69750;SDS011;57335;52.288;6.056;2024-02-16T02:43:46;11.60;;;3.28;;
69750;SDS011;57335;52.288;6.056;2024-02-16T02:46:16;8.88;;;2.80;;
69750;SDS011;57335;52.288;6.056;2024-02-16T02:48:43;8.60;;;2.83;;
69750;SDS011;57335;52.288;6.056;2024-02-16T02:51:17;8.02;;;2.85;;
69750;SDS011;57335;52.288;6.056;2024-02-16T02:53:44;6.60;;;2.63;;
69750;SDS011;57335;52.288;6.056;2024-02-16T02:56:11;7.45;;;2.40;;
69750;SDS011;57335;52.288;6.056;2024-02-16T02:58:40;7.57;;;2.63;;
69750;SDS011;57335;52.288;6.056;2024-02-16T03:01:07;6.50;;;2.53;;
69750;SDS011;57335;52.288;6.056;2024-02-16T03:03:35;7.70;;;2.92;;
69750;SDS011;57335;52.288;6.056;2024-02-16T03:06:02;8.18;;;2.50;;
69750;SDS011;57335;52.288;6.056;2024-02-16T03:08:30;7.68;;;3.03;;
69750;SDS011;57335;52.288;6.056;2024-02-16T03:10:57;8.90;;;2.78;;
69750;SDS011;57335;52.288;6.056;2024-02-16T03:13:27;7.63;;;3.00;;
69750;SDS011;57335;52.288;6.056;2024-02-16T03:15:54;9.82;;;3.15;;
69750;SDS011;57335;52.288;6.056;2024-02-16T03:18:21;7.78;;;2.50;;
69750;SDS011;57335;52.288;6.056;2024-02-16T03:20:48;8.35;;;2.80;;
69750;SDS011;57335;52.288;6.056;2024-02-16T03:23:17;7.32;;;2.70;;
69750;SDS011;57335;52.288;6.056;2024-02-16T03:25:44;7.28;;;2.88;;
69750;SDS011;57335;52.288;6.056;2024-02-16T03:28:13;8.68;;;2.85;;
69750;SDS011;57335;52.288;6.056;2024-02-16T03:30:40;8.43;;;2.72;;
69750;SDS011;57335;52.288;6.056;2024-02-16T03:33:07;9.88;;;2.95;;
69750;SDS011;57335;52.288;6.056;2024-02-16T03:35:35;8.02;;;2.83;;
69750;SDS011;57335;52.288;6.056;2024-02-16T03:38:03;7.18;;;2.67;;
69750;SDS011;57335;52.288;6.056;2024-02-16T03:40:30;7.88;;;2.70;;
69750;SDS011;57335;52.288;6.056;2024-02-16T03:42:57;8.05;;;2.67;;
69750;SDS011;57335;52.288;6.056;2024-02-16T03:45:24;7.72;;;2.67;;
69750;SDS011;57335;52.288;6.056;2024-02-16T03:47:53;10.23;;;2.75;;
69750;SDS011;57335;52.288;6.056;2024-02-16T03:50:20;9.40;;;2.70;;
69750;SDS011;57335;52.288;6.056;2024-02-16T03:52:47;7.60;;;2.83;;
69750;SDS011;57335;52.288;6.056;2024-02-16T03:55:14;7.82;;;2.60;;
69750;SDS011;57335;52.288;6.056;2024-02-16T03:57:41;8.00;;;2.83;;
69750;SDS011;57335;52.288;6.056;2024-02-16T04:00:08;7.63;;;2.58;;
69750;SDS011;57335;52.288;6.056;2024-02-16T04:02:35;8.05;;;2.50;;
69750;SDS011;57335;52.288;6.056;2024-02-16T04:05:02;10.85;;;2.88;;
69750;SDS011;57335;52.288;6.056;2024-02-16T04:07:30;6.68;;;2.80;;
69750;SDS011;57335;52.288;6.056;2024-02-16T04:09:57;9.32;;;2.72;;
69750;SDS011;57335;52.288;6.056;2024-02-16T04:12:23;9.00;;;2.70;;
69750;SDS011;57335;52.288;6.056;2024-02-16T04:14:50;9.93;;;2.90;;
69750;SDS011;57335;52.288;6.056;2024-02-16T04:17:16;7.28;;;2.60;;
69750;SDS011;57335;52.288;6.056;2024-02-16T04:19:43;8.88;;;2.83;;
69750;SDS011;57335;52.288;6.056;2024-02-16T04:22:10;8.52;;;2.75;;
69750;SDS011;57335;52.288;6.056;2024-02-16T04:24:37;7.88;;;2.85;;
69750;SDS011;57335;52.288;6.056;2024-02-16T04:27:04;8.23;;;2.75;;
69750;SDS011;57335;52.288;6.056;2024-02-16T04:29:34;7.07;;;2.38;;
69750;SDS011;57335;52.288;6.056;2024-02-16T04:32:01;7.55;;;2.78;;
69750;SDS011;57335;52.288;6.056;2024-02-16T04:34:27;9.88;;;2.80;;
69750;SDS011;57335;52.288;6.056;2024-02-16T04:36:55;8.98;;;2.60;;
69750;SDS011;57335;52.288;6.056;2024-02-16T04:39:21;9.05;;;3.10;;
69750;SDS011;57335;52.288;6.056;2024-02-16T04:41:49;6.80;;;2.38;;
69750;SDS011;57335;52.288;6.056;2024-02-16T04:44:18;7.53;;;2.55;;
69750;SDS011;57335;52.288;6.056;2024-02-16T04:46:45;5.97;;;2.42;;
69750;SDS011;57335;52.288;6.056;2024-02-16T04:49:11;7.28;;;2.42;;
69750;SDS011;57335;52.288;6.056;2024-02-16T04:51:39;7.80;;;3.13;;
69750;SDS011;57335;52.288;6.056;2024-02-16T04:54:07;8.27;;;2.70;;
69750;SDS011;57335;52.288;6.056;2024-02-16T04:56:34;7.80;;;2.47;;
69750;SDS011;57335;52.288;6.056;2024-02-16T04:59:00;6.43;;;2.58;;
69750;SDS011;57335;52.288;6.056;2024-02-16T05:01:27;7.97;;;2.80;;
69750;SDS011;57335;52.288;6.056;2024-02-16T05:03:55;9.35;;;2.83;;
69750;SDS011;57335;52.288;6.056;2024-02-16T05:06:23;12.90;;;3.35;;
69750;SDS011;57335;52.288;6.056;2024-02-16T05:08:51;9.75;;;3.10;;
69750;SDS011;57335;52.288;6.056;2024-02-16T05:11:18;7.60;;;2.60;;
69750;SDS011;57335;52.288;6.056;2024-02-16T05:13:44;7.47;;;3.00;;
69750;SDS011;57335;52.288;6.056;2024-02-16T05:16:11;9.05;;;3.42;;
69750;SDS011;57335;52.288;6.056;2024-02-16T05:18:38;8.50;;;3.33;;
69750;SDS011;57335;52.288;6.056;2024-02-16T05:21:07;8.18;;;3.05;;
69750;SDS011;57335;52.288;6.056;2024-02-16T05:23:33;8.63;;;3.30;;
69750;SDS011;57335;52.288;6.056;2024-02-16T05:26:00;7.55;;;3.10;;
69750;SDS011;57335;52.288;6.056;2024-02-16T05:28:27;7.88;;;3.08;;
69750;SDS011;57335;52.288;6.056;2024-02-16T05:30:53;8.20;;;3.10;;
69750;SDS011;57335;52.288;6.056;2024-02-16T05:33:20;8.25;;;3.00;;
69750;SDS011;57335;52.288;6.056;2024-02-16T05:35:47;7.47;;;2.95;;
69750;SDS011;57335;52.288;6.056;2024-02-16T05:38:21;8.88;;;3.08;;
69750;SDS011;57335;52.288;6.056;2024-02-16T05:40:58;7.22;;;2.97;;
69750;SDS011;57335;52.288;6.056;2024-02-16T05:43:25;8.38;;;3.17;;
69750;SDS011;57335;52.288;6.056;2024-02-16T05:45:51;9.25;;;2.83;;
69750;SDS011;57335;52.288;6.056;2024-02-16T05:48:18;7.43;;;2.72;;
69750;SDS011;57335;52.288;6.056;2024-02-16T05:50:46;7.13;;;2.97;;
69750;SDS011;57335;52.288;6.056;2024-02-16T05:53:13;8.10;;;2.70;;
69750;SDS011;57335;52.288;6.056;2024-02-16T05:55:39;8.32;;;2.67;;
69750;SDS011;57335;52.288;6.056;2024-02-16T05:58:06;8.45;;;2.90;;
69750;SDS011;57335;52.288;6.056;2024-02-16T06:00:33;9.88;;;2.85;;
69750;SDS011;57335;52.288;6.056;2024-02-16T06:03:01;6.80;;;2.75;;
69750;SDS011;57335;52.288;6.056;2024-02-16T06:05:29;7.68;;;2.97;;
69750;SDS011;57335;52.288;6.056;2024-02-16T06:07:56;9.48;;;3.22;;
69750;SDS011;57335;52.288;6.056;2024-02-16T06:10:23;9.63;;;3.17;;
69750;SDS011;57335;52.288;6.056;2024-02-16T06:12:50;8.23;;;2.88;;
69750;SDS011;57335;52.288;6.056;2024-02-16T06:15:17;7.57;;;3.05;;
69750;SDS011;57335;52.288;6.056;2024-02-16T06:17:44;9.77;;;3.03;;
69750;SDS011;57335;52.288;6.056;2024-02-16T06:20:10;10.02;;;2.97;;
69750;SDS011;57335;52.288;6.056;2024-02-16T06:22:37;8.27;;;2.88;;
69750;SDS011;57335;52.288;6.056;2024-02-16T06:25:04;8.52;;;3.55;;
69750;SDS011;57335;52.288;6.056;2024-02-16T06:27:32;9.45;;;3.25;;
69750;SDS011;57335;52.288;6.056;2024-02-16T06:29:59;8.82;;;2.92;;
69750;SDS011;57335;52.288;6.056;2024-02-16T06:32:26;8.13;;;3.00;;
69750;SDS011;57335;52.288;6.056;2024-02-16T06:34:55;9.05;;;3.40;;
69750;SDS011;57335;52.288;6.056;2024-02-16T06:37:22;8.07;;;3.13;;
69750;SDS011;57335;52.288;6.056;2024-02-16T06:39:49;8.65;;;3.15;;
69750;SDS011;57335;52.288;6.056;2024-02-16T06:42:16;7.60;;;3.13;;
69750;SDS011;57335;52.288;6.056;2024-02-16T06:44:43;8.30;;;3.17;;
69750;SDS011;57335;52.288;6.056;2024-02-16T06:47:09;9.43;;;3.40;;
69750;SDS011;57335;52.288;6.056;2024-02-16T06:49:36;8.57;;;2.80;;
69750;SDS011;57335;52.288;6.056;2024-02-16T06:52:03;8.00;;;2.60;;
69750;SDS011;57335;52.288;6.056;2024-02-16T06:54:30;7.43;;;2.80;;
69750;SDS011;57335;52.288;6.056;2024-02-16T06:56:57;8.88;;;2.90;;
69750;SDS011;57335;52.288;6.056;2024-02-16T06:59:24;7.72;;;2.80;;
69750;SDS011;57335;52.288;6.056;2024-02-16T07:01:51;9.57;;;3.05;;
69750;SDS011;57335;52.288;6.056;2024-02-16T07:04:18;7.38;;;2.78;;
69750;SDS011;57335;52.288;6.056;2024-02-16T07:06:44;8.80;;;2.80;;
69750;SDS011;57335;52.288;6.056;2024-02-16T07:09:11;9.52;;;3.20;;
69750;SDS011;57335;52.288;6.056;2024-02-16T07:11:41;8.57;;;2.58;;
69750;SDS011;57335;52.288;6.056;2024-02-16T07:14:16;7.65;;;2.60;;
69750;SDS011;57335;52.288;6.056;2024-02-16T07:16:43;6.18;;;2.10;;
69750;SDS011;57335;52.288;6.056;2024-02-16T07:19:10;5.82;;;2.50;;
69750;SDS011;57335;52.288;6.056;2024-02-16T07:21:36;7.00;;;2.65;;
69750;SDS011;57335;52.288;6.056;2024-02-16T07:24:03;7.63;;;2.60;;
69750;SDS011;57335;52.288;6.056;2024-02-16T07:26:30;5.72;;;2.10;;
69750;SDS011;57335;52.288;6.056;2024-02-16T07:28:57;7.68;;;2.75;;
69750;SDS011;57335;52.288;6.056;2024-02-16T07:31:24;8.13;;;2.60;;
69750;SDS011;57335;52.288;6.056;2024-02-16T07:33:50;5.18;;;1.90;;
69750;SDS011;57335;52.288;6.056;2024-02-16T07:36:17;7.45;;;2.50;;
69750;SDS011;57335;52.288;6.056;2024-02-16T07:38:45;7.82;;;2.42;;
69750;SDS011;57335;52.288;6.056;2024-02-16T07:41:15;8.40;;;2.65;;
69750;SDS011;57335;52.288;6.056;2024-02-16T07:43:41;7.00;;;2.20;;
69750;SDS011;57335;52.288;6.056;2024-02-16T07:46:08;8.70;;;2.28;;
69750;SDS011;57335;52.288;6.056;2024-02-16T07:48:35;7.15;;;2.55;;
69750;SDS011;57335;52.288;6.056;2024-02-16T07:51:02;5.68;;;2.30;;
69750;SDS011;57335;52.288;6.056;2024-02-16T07:53:30;7.20;;;2.40;;
69750;SDS011;57335;52.288;6.056;2024-02-16T07:55:57;6.55;;;2.83;;
69750;SDS011;57335;52.288;6.056;2024-02-16T07:58:25;6.57;;;2.20;;
69750;SDS011;57335;52.288;6.056;2024-02-16T08:00:51;7.10;;;2.67;;
69750;SDS011;57335;52.288;6.056;2024-02-16T08:03:18;6.68;;;2.67;;
69750;SDS011;57335;52.288;6.056;2024-02-16T08:05:45;8.20;;;2.53;;
69750;SDS011;57335;52.288;6.056;2024-02-16T08:08:12;8.55;;;2.65;;
69750;SDS011;57335;52.288;6.056;2024-02-16T08:10:38;7.88;;;2.83;;
69750;SDS011;57335;52.288;6.056;2024-02-16T08:13:05;7.93;;;2.47;;
69750;SDS011;57335;52.288;6.056;2024-02-16T08:15:32;8.13;;;2.22;;
69750;SDS011;57335;52.288;6.056;2024-02-16T08:17:59;7.53;;;2.63;;
69750;SDS011;57335;52.288;6.056;2024-02-16T08:20:26;6.82;;;2.50;;
69750;SDS011;57335;52.288;6.056;2024-02-16T08:22:52;7.47;;;2.67;;
69750;SDS011;57335;52.288;6.056;2024-02-16T08:25:19;8.25;;;2.90;;
69750;SDS011;57335;52.288;6.056;2024-02-16T08:27:46;6.82;;;2.63;;
69750;SDS011;57335;52.288;6.056;2024-02-16T08:30:13;8.85;;;2.70;;
69750;SDS011;57335;52.288;6.056;2024-02-16T08:32:41;8.55;;;3.10;;
69750;SDS011;57335;52.288;6.056;2024-02-16T08:35:08;7.85;;;2.80;;
69750;SDS011;57335;52.288;6.056;2024-02-16T08:37:34;7.15;;;2.67;;
69750;SDS011;57335;52.288;6.056;2024-02-16T08:40:01;7.00;;;2.85;;
69750;SDS011;57335;52.288;6.056;2024-02-16T08:42:28;8.65;;;3.10;;
69750;SDS011;57335;52.288;6.056;2024-02-16T08:44:55;8.10;;;2.90;;
69750;SDS011;57335;52.288;6.056;2024-02-16T08:47:21;7.97;;;2.95;;
69750;SDS011;57335;52.288;6.056;2024-02-16T08:49:48;11.43;;;3.15;;
69750;SDS011;57335;52.288;6.056;2024-02-16T08:52:15;8.20;;;3.10;;
69750;SDS011;57335;52.288;6.056;2024-02-16T08:54:45;10.07;;;3.40;;
69750;SDS011;57335;52.288;6.056;2024-02-16T08:57:11;10.80;;;3.80;;
69750;SDS011;57335;52.288;6.056;2024-02-16T08:59:39;7.35;;;3.00;;
69750;SDS011;57335;52.288;6.056;2024-02-16T09:02:05;8.20;;;3.25;;
69750;SDS011;57335;52.288;6.056;2024-02-16T09:04:32;7.97;;;3.05;;
69750;SDS011;57335;52.288;6.056;2024-02-16T09:06:59;9.02;;;2.92;;
69750;SDS011;57335;52.288;6.056;2024-02-16T09:09:26;8.57;;;3.08;;
69750;SDS011;57335;52.288;6.056;2024-02-16T09:11:52;11.27;;;3.75;;
69750;SDS011;57335;52.288;6.056;2024-02-16T09:14:19;8.82;;;3.30;;
69750;SDS011;57335;52.288;6.056;2024-02-16T09:16:48;10.27;;;3.20;;
69750;SDS011;57335;52.288;6.056;2024-02-16T09:19:17;10.05;;;3.35;;
69750;SDS011;57335;52.288;6.056;2024-02-16T09:21:44;7.85;;;3.28;;
69750;SDS011;57335;52.288;6.056;2024-02-16T09:24:11;9.95;;;3.70;;
69750;SDS011;57335;52.288;6.056;2024-02-16T09:29:13;9.48;;;3.60;;
69750;SDS011;57335;52.288;6.056;2024-02-16T09:31:40;8.93;;;3.17;;
69750;SDS011;57335;52.288;6.056;2024-02-16T09:34:07;8.65;;;3.22;;
69750;SDS011;57335;52.288;6.056;2024-02-16T09:36:34;9.68;;;3.85;;
69750;SDS011;57335;52.288;6.056;2024-02-16T09:39:03;8.88;;;3.58;;
69750;SDS011;57335;52.288;6.056;2024-02-16T09:41:31;7.75;;;2.97;;
69750;SDS011;57335;52.288;6.056;2024-02-16T09:44:03;9.75;;;3.72;;
69750;SDS011;57335;52.288;6.056;2024-02-16T09:46:30;8.63;;;3.40;;
69750;SDS011;57335;52.288;6.056;2024-02-16T09:49:03;10.00;;;3.35;;
69750;SDS011;57335;52.288;6.056;2024-02-16T09:51:31;8.77;;;3.78;;
69750;SDS011;57335;52.288;6.056;2024-02-16T09:53:58;7.90;;;3.38;;
69750;SDS011;57335;52.288;6.056;2024-02-16T09:56:26;8.40;;;3.58;;
69750;SDS011;57335;52.288;6.056;2024-02-16T09:58:53;9.13;;;3.75;;
69750;SDS011;57335;52.288;6.056;2024-02-16T10:01:23;11.00;;;3.60;;
69750;SDS011;57335;52.288;6.056;2024-02-16T10:03:50;9.77;;;3.70;;
69750;SDS011;57335;52.288;6.056;2024-02-16T10:06:17;11.18;;;3.78;;
69750;SDS011;57335;52.288;6.056;2024-02-16T10:08:51;9.45;;;3.78;;
69750;SDS011;57335;52.288;6.056;2024-02-16T10:11:19;11.23;;;4.03;;
69750;SDS011;57335;52.288;6.056;2024-02-16T10:14:04;12.15;;;4.35;;
69750;SDS011;57335;52.288;6.056;2024-02-16T10:16:31;10.23;;;3.92;;
69750;SDS011;57335;52.288;6.056;2024-02-16T10:19:04;8.98;;;3.65;;
69750;SDS011;57335;52.288;6.056;2024-02-16T10:21:33;8.93;;;3.30;;
69750;SDS011;57335;52.288;6.056;2024-02-16T10:24:05;10.60;;;4.78;;
69750;SDS011;57335;52.288;6.056;2024-02-16T10:26:35;9.65;;;4.30;;
69750;SDS011;57335;52.288;6.056;2024-02-16T10:29:08;9.80;;;4.60;;
69750;SDS011;57335;52.288;6.056;2024-02-16T10:31:35;10.45;;;4.43;;
69750;SDS011;57335;52.288;6.056;2024-02-16T10:34:03;13.55;;;4.50;;
69750;SDS011;57335;52.288;6.056;2024-02-16T10:36:37;11.82;;;4.88;;
69750;SDS011;57335;52.288;6.056;2024-02-16T10:39:05;11.05;;;5.22;;
69750;SDS011;57335;52.288;6.056;2024-02-16T10:41:36;13.35;;;5.03;;
69750;SDS011;57335;52.288;6.056;2024-02-16T10:44:05;14.10;;;6.35;;
69750;SDS011;57335;52.288;6.056;2024-02-16T10:46:33;13.07;;;5.20;;
69750;SDS011;57335;52.288;6.056;2024-02-16T10:49:00;12.65;;;5.50;;
69750;SDS011;57335;52.288;6.056;2024-02-16T10:51:43;15.10;;;6.63;;
69750;SDS011;57335;52.288;6.056;2024-02-16T10:54:15;14.32;;;5.90;;
69750;SDS011;57335;52.288;6.056;2024-02-16T10:56:46;14.98;;;6.70;;
69750;SDS011;57335;52.288;6.056;2024-02-16T10:59:16;14.02;;;6.25;;
69750;SDS011;57335;52.288;6.056;2024-02-16T11:01:43;13.00;;;5.72;;
69750;SDS011;57335;52.288;6.056;2024-02-16T11:04:12;11.18;;;5.57;;
69750;SDS011;57335;52.288;6.056;2024-02-16T11:06:55;16.77;;;7.03;;
69750;SDS011;57335;52.288;6.056;2024-02-16T11:09:29;13.35;;;6.70;;
69750;SDS011;57335;52.288;6.056;2024-02-16T11:12:01;14.80;;;6.75;;
69750;SDS011;57335;52.288;6.056;2024-02-16T11:14:39;14.73;;;7.05;;
69750;SDS011;57335;52.288;6.056;2024-02-16T11:17:13;14.27;;;6.45;;
69750;SDS011;57335;52.288;6.056;2024-02-16T11:19:47;14.55;;;6.65;;
69750;SDS011;57335;52.288;6.056;2024-02-16T11:22:15;13.95;;;6.90;;
69750;SDS011;57335;52.288;6.056;2024-02-16T11:24:44;15.95;;;7.30;;
69750;SDS011;57335;52.288;6.056;2024-02-16T11:27:13;16.75;;;7.50;;
69750;SDS011;57335;52.288;6.056;2024-02-16T11:29:46;17.48;;;8.02;;
69750;SDS011;57335;52.288;6.056;2024-02-16T11:32:19;17.35;;;8.20;;
69750;SDS011;57335;52.288;6.056;2024-02-16T11:34:47;18.25;;;8.50;;
69750;SDS011;57335;52.288;6.056;2024-02-16T11:37:14;18.17;;;8.73;;
69750;SDS011;57335;52.288;6.056;2024-02-16T11:39:42;17.80;;;8.57;;
69750;SDS011;57335;52.288;6.056;2024-02-16T11:42:12;18.30;;;9.00;;
69750;SDS011;57335;52.288;6.056;2024-02-16T11:44:50;17.50;;;8.75;;
69750;SDS011;57335;52.288;6.056;2024-02-16T11:47:21;17.13;;;8.95;;
69750;SDS011;57335;52.288;6.056;2024-02-16T11:50:01;16.33;;;8.48;;
69750;SDS011;57335;52.288;6.056;2024-02-16T11:52:39;17.50;;;8.13;;
69750;SDS011;57335;52.288;6.056;2024-02-16T11:55:09;15.85;;;8.68;;
69750;SDS011;57335;52.288;6.056;2024-02-16T11:57:38;15.10;;;7.45;;
69750;SDS011;57335;52.288;6.056;2024-02-16T12:00:06;17.80;;;8.57;;
69750;SDS011;57335;52.288;6.056;2024-02-16T12:02:35;16.65;;;8.25;;
69750;SDS011;57335;52.288;6.056;2024-02-16T12:05:03;16.08;;;8.18;;
69750;SDS011;57335;52.288;6.056;2024-02-16T12:07:31;16.02;;;8.45;;
69750;SDS011;57335;52.288;6.056;2024-02-16T12:10:01;15.45;;;7.78;;
69750;SDS011;57335;52.288;6.056;2024-02-16T12:12:31;15.38;;;8.30;;
69750;SDS011;57335;52.288;6.056;2024-02-16T12:14:59;15.65;;;7.72;;
69750;SDS011;57335;52.288;6.056;2024-02-16T12:17:25;15.52;;;7.43;;
69750;SDS011;57335;52.288;6.056;2024-02-16T12:19:52;14.82;;;8.15;;
69750;SDS011;57335;52.288;6.056;2024-02-16T12:22:20;15.05;;;7.80;;
69750;SDS011;57335;52.288;6.056;2024-02-16T12:24:47;14.25;;;7.55;;
69750;SDS011;57335;52.288;6.056;2024-02-16T12:27:17;14.77;;;8.15;;
69750;SDS011;57335;52.288;6.056;2024-02-16T12:29:44;14.77;;;7.43;;
69750;SDS011;57335;52.288;6.056;2024-02-16T12:32:11;14.02;;;6.82;;
69750;SDS011;57335;52.288;6.056;2024-02-16T12:34:38;16.45;;;7.60;;
69750;SDS011;57335;52.288;6.056;2024-02-16T12:37:05;15.88;;;7.50;;
69750;SDS011;57335;52.288;6.056;2024-02-16T12:39:34;13.57;;;6.93;;
69750;SDS011;57335;52.288;6.056;2024-02-16T12:42:01;14.20;;;6.78;;
69750;SDS011;57335;52.288;6.056;2024-02-16T12:44:28;12.73;;;6.80;;
69750;SDS011;57335;52.288;6.056;2024-02-16T12:46:55;14.18;;;6.88;;
69750;SDS011;57335;52.288;6.056;2024-02-16T12:49:21;15.68;;;7.82;;
69750;SDS011;57335;52.288;6.056;2024-02-16T12:51:49;14.48;;;7.35;;
69750;SDS011;57335;52.288;6.056;2024-02-16T12:54:16;15.77;;;6.78;;
69750;SDS011;57335;52.288;6.056;2024-02-16T12:56:45;13.27;;;7.30;;
69750;SDS011;57335;52.288;6.056;2024-02-16T12:59:12;15.60;;;6.80;;
69750;SDS011;57335;52.288;6.056;2024-02-16T13:01:39;13.98;;;6.32;;
69750;SDS011;57335;52.288;6.056;2024-02-16T13:04:08;12.35;;;6.28;;
69750;SDS011;57335;52.288;6.056;2024-02-16T13:06:35;12.35;;;6.10;;
69750;SDS011;57335;52.288;6.056;2024-02-16T13:09:02;14.38;;;5.55;;
69750;SDS011;57335;52.288;6.056;2024-02-16T13:11:30;10.88;;;5.65;;
69750;SDS011;57335;52.288;6.056;2024-02-16T13:13:57;11.98;;;4.70;;
69750;SDS011;57335;52.288;6.056;2024-02-16T13:16:24;12.30;;;5.38;;
69750;SDS011;57335;52.288;6.056;2024-02-16T13:18:51;11.80;;;5.32;;
69750;SDS011;57335;52.288;6.056;2024-02-16T13:21:17;11.00;;;4.88;;
69750;SDS011;57335;52.288;6.056;2024-02-16T13:23:44;10.48;;;4.50;;
69750;SDS011;57335;52.288;6.056;2024-02-16T13:26:11;12.20;;;4.57;;
69750;SDS011;57335;52.288;6.056;2024-02-16T13:28:37;10.50;;;4.20;;
69750;SDS011;57335;52.288;6.056;2024-02-16T13:31:04;9.73;;;4.30;;
69750;SDS011;57335;52.288;6.056;2024-02-16T13:33:31;10.60;;;4.30;;
69750;SDS011;57335;52.288;6.056;2024-02-16T13:35:58;9.35;;;3.97;;
69750;SDS011;57335;52.288;6.056;2024-02-16T13:38:25;8.77;;;3.88;;
69750;SDS011;57335;52.288;6.056;2024-02-16T13:40:51;10.25;;;4.40;;
69750;SDS011;57335;52.288;6.056;2024-02-16T13:43:18;9.40;;;3.75;;
69750;SDS011;57335;52.288;6.056;2024-02-16T13:45:47;8.82;;;3.78;;
69750;SDS011;57335;52.288;6.056;2024-02-16T13:48:14;8.57;;;3.65;;
69750;SDS011;57335;52.288;6.056;2024-02-16T13:50:40;8.32;;;3.13;;
69750;SDS011;57335;52.288;6.056;2024-02-16T13:53:09;8.20;;;3.40;;
69750;SDS011;57335;52.288;6.056;2024-02-16T13:55:36;8.48;;;3.30;;
69750;SDS011;57335;52.288;6.056;2024-02-16T13:58:02;8.45;;;3.60;;
69750;SDS011;57335;52.288;6.056;2024-02-16T14:00:29;7.65;;;3.20;;
69750;SDS011;57335;52.288;6.056;2024-02-16T14:02:56;6.68;;;2.90;;
69750;SDS011;57335;52.288;6.056;2024-02-16T14:05:23;6.75;;;2.70;;
69750;SDS011;57335;52.288;6.056;2024-02-16T14:07:51;7.10;;;2.45;;
69750;SDS011;57335;52.288;6.056;2024-02-16T14:10:26;7.53;;;2.75;;
69750;SDS011;57335;52.288;6.056;2024-02-16T14:12:53;7.00;;;2.70;;
69750;SDS011;57335;52.288;6.056;2024-02-16T14:15:20;6.80;;;2.50;;
69750;SDS011;57335;52.288;6.056;2024-02-16T14:17:47;6.70;;;2.30;;
69750;SDS011;57335;52.288;6.056;2024-02-16T14:20:13;6.82;;;2.75;;
69750;SDS011;57335;52.288;6.056;2024-02-16T14:22:40;5.72;;;2.30;;
69750;SDS011;57335;52.288;6.056;2024-02-16T14:25:07;7.40;;;2.70;;
69750;SDS011;57335;52.288;6.056;2024-02-16T14:27:37;7.93;;;3.38;;
69750;SDS011;57335;52.288;6.056;2024-02-16T14:30:05;6.57;;;2.80;;
69750;SDS011;57335;52.288;6.056;2024-02-16T14:32:32;7.10;;;2.83;;
69750;SDS011;57335;52.288;6.056;2024-02-16T14:34:59;7.32;;;3.17;;
69750;SDS011;57335;52.288;6.056;2024-02-16T14:37:27;7.97;;;3.17;;
69750;SDS011;57335;52.288;6.056;2024-02-16T14:39:54;7.53;;;2.97;;
69750;SDS011;57335;52.288;6.056;2024-02-16T14:42:26;7.32;;;3.00;;
69750;SDS011;57335;52.288;6.056;2024-02-16T14:44:53;7.05;;;3.03;;
69750;SDS011;57335;52.288;6.056;2024-02-16T14:47:21;8.18;;;3.10;;
69750;SDS011;57335;52.288;6.056;2024-02-16T14:49:51;8.50;;;4.05;;